Nearby METAR Reports

 

KSDF - Louisville, Kentucky, USA
Distance from station: NNW 19mi, 31km
Updated: Thu, 18-Apr-2019 11:56am EDT
Overcast
Overcast
 Wind from SSW
Wind: SSW 18 mph , 30 km/h, Gust: 26 mph , 43 km/h
Temperature: 75°F , 24°C
Dew Point: 55°F , 13°C
Humidity: 50%
Barometer: 29.77 inHg , 1008.1 hPa
Clouds: Overcast
Visibility: 10 miles , 16 km
Cloud details: Mostly cloudy 4000 ft
Mostly cloudy 20000 ft
Overcast 25000 ft
2019/04/18 15:56 KSDF 181556Z 21016G23KT 10SM BKN040 BKN200 OVC250 24/13 A2977 RMK AO2 PK WND 18030/1516 SLP078 T02390128
KLOU - Louisville/Bowmn, Kentucky, USA
Distance from station: NNW 20mi, 33km
Updated: Thu, 18-Apr-2019 11:53am EDT
Mostly cloudy
Mostly cloudy
 Wind from SSW
Wind: SSW 20 mph , 31 km/h, Gust: 29 mph , 46 km/h
Temperature: 72°F , 22°C
Dew Point: 55°F , 13°C
Humidity: 57%
Barometer: 29.77 inHg , 1008.1 hPa
Clouds: Mostly cloudy
Visibility: 10 miles , 16 km
Cloud details: Mostly cloudy 4100 ft
2019/04/18 15:53 KLOU 181553Z 21017G25KT 10SM BKN041 22/13 A2977 RMK AO2 PK WND 18031/1500 SLP076 T02170128
 
KFTK - Fort Knox/Godman, Kentucky, USA
Distance from station: W 21mi, 33km
Updated: Thu, 18-Apr-2019 11:56am EDT
Mostly cloudy
Mostly cloudy
 Wind from SSW
Wind: SSW 23 mph , 37 km/h, Gust: 32 mph , 52 km/h
Temperature: 72°F , 22°C
Dew Point: 55°F , 13°C
Humidity: 57%
Barometer: 29.82 inHg , 1009.8 hPa
Clouds: Mostly cloudy
Visibility: 7 miles , 11 km
Cloud details: Partly cloudy 3000 ft
Mostly cloudy 18000 ft
2019/04/18 15:56 KFTK 181556Z 20020G28KT 7SM SCT030 BKN180 22/13 A2982 RMK SLP102
KEKX - Elizabeth, Kentucky, USA
Distance from station: SW 21mi, 34km
Updated: Thu, 18-Apr-2019 12:55pm EDT
Overcast
Overcast
 Wind from SSW
Wind: SSW 22 mph , 35 km/h, Gust: 29 mph , 46 km/h
Temperature: 68°F , 20°C
Dew Point: 55°F , 13°C
Humidity: 64%
Barometer: 29.81 inHg , 1009.5 hPa
Clouds: Overcast
Visibility: 10 miles , 16 km
Cloud details: Mostly cloudy 3700 ft
Overcast 4300 ft
2019/04/18 16:55 KEKX 181655Z AUTO 21019G25KT 10SM BKN037 OVC043 20/13 A2981 RMK AO2 T01990132
 
K6I2 - Springfield, Kentucky, USA
Distance from station: SE 28mi, 44km
Updated: Thu, 18-Apr-2019 12:25pm EDT
Partly cloudy
Partly cloudy
 Wind from SSW
Wind: SSW 17 mph , 28 km/h, Gust: 30 mph , 48 km/h
Temperature: 72°F , 22°C
Dew Point: 57°F , 14°C
Humidity: 61%
Barometer: 29.82 inHg , 1009.8 hPa
Clouds: Partly cloudy
Visibility: 10 miles , 16 km
Cloud details: Few Clouds 3700 ft
Partly cloudy 4300 ft
2019/04/18 16:25 K6I2 181625Z AUTO 20015G26KT 10SM FEW037 SCT043 22/14 A2982 RMK AO2
KFFT - Frankfort, Kentucky, USA
Distance from station: ENE 42mi, 67km
Updated: Thu, 18-Apr-2019 11:53am EDT
Few Clouds
Few Clouds
 Wind from SSW
Wind: SSW 20 mph , 31 km/h, Gust: 37 mph , 59 km/h
Temperature: 70°F , 21°C
Dew Point: 55°F , 13°C
Humidity: 60%
Barometer: 29.80 inHg , 1009.1 hPa
Clouds: Few Clouds
Visibility: 10 miles , 16 km
Cloud details: Few Clouds 3700 ft
2019/04/18 15:53 KFFT 181553Z AUTO 21017G32KT 10SM FEW037 21/13 A2980 RMK AO2 PK WND 22032/1546 RAB08E25 SLP084 P0000 T02110133